sensor_id;sensor_type;location;lat;lon;timestamp;pressure;altitude;pressure_sealevel;temperature;humidity
39177;BME280;24904;52.208;21.192;2023-04-22T00:03:17;100518.38;;;7.57;57.94
39177;BME280;24904;52.208;21.192;2023-04-22T00:08:20;100517.86;;;7.49;58.16
39177;BME280;24904;52.208;21.192;2023-04-22T00:13:23;100514.84;;;7.52;58.66
39177;BME280;24904;52.208;21.192;2023-04-22T00:18:26;100511.36;;;7.42;58.83
39177;BME280;24904;52.208;21.192;2023-04-22T00:23:29;100510.34;;;7.30;58.63
39177;BME280;24904;52.208;21.192;2023-04-22T00:28:32;100502.84;;;7.21;58.94
39177;BME280;24904;52.208;21.192;2023-04-22T00:33:35;100504.70;;;7.15;59.27
39177;BME280;24904;52.208;21.192;2023-04-22T00:38:39;100499.82;;;7.10;59.49
39177;BME280;24904;52.208;21.192;2023-04-22T00:43:43;100503.34;;;7.04;59.87
39177;BME280;24904;52.208;21.192;2023-04-22T00:48:46;100502.98;;;7.00;59.97
39177;BME280;24904;52.208;21.192;2023-04-22T00:53:49;100501.33;;;6.94;60.19
39177;BME280;24904;52.208;21.192;2023-04-22T00:58:53;100497.70;;;6.87;60.34
39177;BME280;24904;52.208;21.192;2023-04-22T01:03:57;100497.91;;;6.78;60.52
39177;BME280;24904;52.208;21.192;2023-04-22T01:09:02;100496.19;;;6.72;60.91
39177;BME280;24904;52.208;21.192;2023-04-22T01:14:05;100495.17;;;6.66;61.10
39177;BME280;24904;52.208;21.192;2023-04-22T01:19:08;100494.94;;;6.63;61.42
39177;BME280;24904;52.208;21.192;2023-04-22T01:24:12;100493.79;;;6.70;61.89
39177;BME280;24904;52.208;21.192;2023-04-22T01:29:16;100496.73;;;6.79;61.94
39177;BME280;24904;52.208;21.192;2023-04-22T01:34:19;100493.92;;;6.72;61.92
39177;BME280;24904;52.208;21.192;2023-04-22T01:39:22;100494.76;;;6.60;62.12
39177;BME280;24904;52.208;21.192;2023-04-22T01:44:25;100498.41;;;6.49;61.98
39177;BME280;24904;52.208;21.192;2023-04-22T01:49:28;100498.16;;;6.43;62.34
39177;BME280;24904;52.208;21.192;2023-04-22T01:54:31;100497.98;;;6.43;62.46
39177;BME280;24904;52.208;21.192;2023-04-22T01:59:35;100495.89;;;6.35;62.79
39177;BME280;24904;52.208;21.192;2023-04-22T02:04:38;100493.80;;;6.33;63.07
39177;BME280;24904;52.208;21.192;2023-04-22T02:09:42;100497.55;;;6.28;63.14
39177;BME280;24904;52.208;21.192;2023-04-22T02:14:45;100494.28;;;6.20;63.14
39177;BME280;24904;52.208;21.192;2023-04-22T02:19:48;100488.09;;;6.15;63.32
39177;BME280;24904;52.208;21.192;2023-04-22T02:24:51;100488.39;;;6.06;63.50
39177;BME280;24904;52.208;21.192;2023-04-22T02:29:54;100481.00;;;6.02;63.53
39177;BME280;24904;52.208;21.192;2023-04-22T02:34:57;100479.28;;;5.94;63.75
39177;BME280;24904;52.208;21.192;2023-04-22T02:40:01;100480.13;;;5.84;63.93
39177;BME280;24904;52.208;21.192;2023-04-22T02:45:07;100475.27;;;5.79;64.09
39177;BME280;24904;52.208;21.192;2023-04-22T02:50:11;100479.04;;;5.77;64.11
39177;BME280;24904;52.208;21.192;2023-04-22T02:55:14;100477.22;;;5.76;64.16
39177;BME280;24904;52.208;21.192;2023-04-22T03:00:17;100474.91;;;5.67;64.56
39177;BME280;24904;52.208;21.192;2023-04-22T03:05:21;100476.73;;;5.71;64.81
39177;BME280;24904;52.208;21.192;2023-04-22T03:10:25;100477.36;;;5.63;64.79
39177;BME280;24904;52.208;21.192;2023-04-22T03:15:28;100477.78;;;5.53;65.08
39177;BME280;24904;52.208;21.192;2023-04-22T03:20:31;100483.55;;;5.49;65.06
39177;BME280;24904;52.208;21.192;2023-04-22T03:25:34;100488.05;;;5.42;65.15
39177;BME280;24904;52.208;21.192;2023-04-22T03:30:38;100486.83;;;5.40;65.39
39177;BME280;24904;52.208;21.192;2023-04-22T03:35:41;100490.25;;;5.35;65.89
39177;BME280;24904;52.208;21.192;2023-04-22T03:40:46;100494.98;;;5.32;65.97
39177;BME280;24904;52.208;21.192;2023-04-22T03:45:57;100497.61;;;5.48;66.20
39177;BME280;24904;52.208;21.192;2023-04-22T03:51:03;100497.66;;;5.59;66.31
39177;BME280;24904;52.208;21.192;2023-04-22T03:56:08;100501.06;;;5.51;66.33
39177;BME280;24904;52.208;21.192;2023-04-22T04:01:14;100505.65;;;5.51;66.06
39177;BME280;24904;52.208;21.192;2023-04-22T04:06:19;100510.44;;;5.45;66.33
39177;BME280;24904;52.208;21.192;2023-04-22T04:11:23;100508.27;;;5.46;66.38
39177;BME280;24904;52.208;21.192;2023-04-22T04:16:26;100512.60;;;5.50;66.68
39177;BME280;24904;52.208;21.192;2023-04-22T04:21:36;100516.30;;;5.55;67.02
39177;BME280;24904;52.208;21.192;2023-04-22T04:26:40;100515.73;;;5.66;67.54
39177;BME280;24904;52.208;21.192;2023-04-22T04:31:48;100518.50;;;5.82;67.37
39177;BME280;24904;52.208;21.192;2023-04-22T04:36:51;100519.16;;;5.96;67.32
39177;BME280;24904;52.208;21.192;2023-04-22T04:42:02;100520.39;;;6.08;67.29
39177;BME280;24904;52.208;21.192;2023-04-22T04:47:07;100528.13;;;6.24;67.38
39177;BME280;24904;52.208;21.192;2023-04-22T04:52:10;100528.71;;;6.41;67.72
39177;BME280;24904;52.208;21.192;2023-04-22T04:57:13;100527.13;;;6.53;67.68
39177;BME280;24904;52.208;21.192;2023-04-22T05:02:18;100531.31;;;6.71;67.57
39177;BME280;24904;52.208;21.192;2023-04-22T05:07:21;100533.00;;;6.89;67.44
39177;BME280;24904;52.208;21.192;2023-04-22T05:12:26;100530.29;;;7.08;67.63
39177;BME280;24904;52.208;21.192;2023-04-22T05:17:30;100528.79;;;7.31;67.17
39177;BME280;24904;52.208;21.192;2023-04-22T05:22:35;100526.42;;;7.54;66.95
39177;BME280;24904;52.208;21.192;2023-04-22T05:27:38;100526.59;;;7.76;66.43
39177;BME280;24904;52.208;21.192;2023-04-22T05:32:42;100523.23;;;8.05;65.87
39177;BME280;24904;52.208;21.192;2023-04-22T05:37:46;100522.33;;;8.33;65.41
39177;BME280;24904;52.208;21.192;2023-04-22T05:42:49;100519.38;;;8.58;65.16
39177;BME280;24904;52.208;21.192;2023-04-22T05:47:52;100525.79;;;8.85;64.44
39177;BME280;24904;52.208;21.192;2023-04-22T05:52:56;100525.56;;;9.09;64.22
39177;BME280;24904;52.208;21.192;2023-04-22T05:57:59;100515.70;;;9.33;63.76
39177;BME280;24904;52.208;21.192;2023-04-22T06:03:18;100518.38;;;9.56;63.43
39177;BME280;24904;52.208;21.192;2023-04-22T06:08:21;100521.13;;;9.79;63.11
39177;BME280;24904;52.208;21.192;2023-04-22T06:13:26;100518.29;;;10.03;62.57
39177;BME280;24904;52.208;21.192;2023-04-22T06:18:29;100520.08;;;10.32;61.93
39177;BME280;24904;52.208;21.192;2023-04-22T06:23:34;100516.87;;;10.60;62.12
39177;BME280;24904;52.208;21.192;2023-04-22T06:28:37;100516.64;;;10.85;61.61
39177;BME280;24904;52.208;21.192;2023-04-22T06:33:46;100515.89;;;11.15;60.95
39177;BME280;24904;52.208;21.192;2023-04-22T06:38:49;100512.20;;;11.45;60.22
39177;BME280;24904;52.208;21.192;2023-04-22T06:44:09;100514.80;;;11.78;59.78
39177;BME280;24904;52.208;21.192;2023-04-22T06:49:43;100514.73;;;12.08;59.29
39177;BME280;24904;52.208;21.192;2023-04-22T06:54:56;100511.39;;;12.39;59.06
39177;BME280;24904;52.208;21.192;2023-04-22T06:59:59;100507.95;;;12.73;58.22
39177;BME280;24904;52.208;21.192;2023-04-22T07:05:02;100506.27;;;13.05;57.14
39177;BME280;24904;52.208;21.192;2023-04-22T07:10:08;100507.87;;;13.40;55.22
39177;BME280;24904;52.208;21.192;2023-04-22T07:15:18;100504.12;;;13.76;54.33
39177;BME280;24904;52.208;21.192;2023-04-22T07:20:21;100506.55;;;14.09;52.43
39177;BME280;24904;52.208;21.192;2023-04-22T07:25:24;100505.25;;;14.35;51.20
39177;BME280;24904;52.208;21.192;2023-04-22T07:30:27;100498.64;;;14.65;50.51
39177;BME280;24904;52.208;21.192;2023-04-22T07:35:30;100498.28;;;14.96;49.92
39177;BME280;24904;52.208;21.192;2023-04-22T07:40:33;100497.48;;;15.28;50.03
39177;BME280;24904;52.208;21.192;2023-04-22T07:45:36;100494.45;;;15.56;48.46
39177;BME280;24904;52.208;21.192;2023-04-22T07:50:39;100492.83;;;15.75;47.58
39177;BME280;24904;52.208;21.192;2023-04-22T07:55:42;100488.66;;;15.98;47.60
39177;BME280;24904;52.208;21.192;2023-04-22T08:00:46;100486.70;;;16.29;46.30
39177;BME280;24904;52.208;21.192;2023-04-22T08:06:27;100488.30;;;16.57;45.54
39177;BME280;24904;52.208;21.192;2023-04-22T08:11:30;100486.55;;;16.79;44.65
39177;BME280;24904;52.208;21.192;2023-04-22T08:16:33;100485.95;;;17.01;44.22
39177;BME280;24904;52.208;21.192;2023-04-22T08:21:36;100486.27;;;17.18;42.42
39177;BME280;24904;52.208;21.192;2023-04-22T08:26:39;100480.26;;;17.29;42.29
39177;BME280;24904;52.208;21.192;2023-04-22T08:31:43;100480.17;;;17.49;42.12
39177;BME280;24904;52.208;21.192;2023-04-22T08:36:46;100480.84;;;17.64;41.42
39177;BME280;24904;52.208;21.192;2023-04-22T08:41:50;100485.91;;;17.75;40.78
39177;BME280;24904;52.208;21.192;2023-04-22T08:46:54;100488.63;;;17.84;40.00
39177;BME280;24904;52.208;21.192;2023-04-22T08:51:57;100481.52;;;17.91;40.06
39177;BME280;24904;52.208;21.192;2023-04-22T08:57:01;100480.73;;;18.04;40.34
39177;BME280;24904;52.208;21.192;2023-04-22T09:02:05;100475.68;;;18.16;39.72
39177;BME280;24904;52.208;21.192;2023-04-22T09:07:10;100468.19;;;18.25;39.52
39177;BME280;24904;52.208;21.192;2023-04-22T09:12:16;100467.83;;;18.28;38.64
39177;BME280;24904;52.208;21.192;2023-04-22T09:17:30;100463.38;;;18.36;38.54
39177;BME280;24904;52.208;21.192;2023-04-22T09:22:39;100464.83;;;18.48;38.38
39177;BME280;24904;52.208;21.192;2023-04-22T09:27:43;100459.02;;;18.56;38.15
39177;BME280;24904;52.208;21.192;2023-04-22T09:32:53;100453.72;;;18.64;37.64
39177;BME280;24904;52.208;21.192;2023-04-22T09:37:58;100446.06;;;18.65;37.92
39177;BME280;24904;52.208;21.192;2023-04-22T09:43:05;100446.85;;;18.81;37.61
39177;BME280;24904;52.208;21.192;2023-04-22T09:48:10;100444.84;;;18.79;36.67
39177;BME280;24904;52.208;21.192;2023-04-22T09:53:15;100438.85;;;18.51;36.15
39177;BME280;24904;52.208;21.192;2023-04-22T09:58:20;100435.66;;;18.24;36.74
39177;BME280;24904;52.208;21.192;2023-04-22T10:03:24;100427.86;;;18.08;36.42
39177;BME280;24904;52.208;21.192;2023-04-22T10:08:28;100421.09;;;18.05;36.63
39177;BME280;24904;52.208;21.192;2023-04-22T10:13:32;100419.29;;;18.21;36.82
39177;BME280;24904;52.208;21.192;2023-04-22T10:18:36;100413.48;;;18.37;36.69
39177;BME280;24904;52.208;21.192;2023-04-22T10:23:45;100411.71;;;18.58;36.59
39177;BME280;24904;52.208;21.192;2023-04-22T10:28:50;100418.70;;;18.74;36.08
39177;BME280;24904;52.208;21.192;2023-04-22T10:34:08;100412.91;;;18.88;35.81
39177;BME280;24904;52.208;21.192;2023-04-22T10:39:15;100409.48;;;19.02;35.45
39177;BME280;24904;52.208;21.192;2023-04-22T10:44:20;100407.63;;;19.11;35.34
39177;BME280;24904;52.208;21.192;2023-04-22T10:53:36;100403.86;;;19.19;35.30
39177;BME280;24904;52.208;21.192;2023-04-22T10:58:41;100399.66;;;19.01;34.81
39177;BME280;24904;52.208;21.192;2023-04-22T11:03:44;100397.77;;;18.93;35.74
39177;BME280;24904;52.208;21.192;2023-04-22T11:08:49;100395.85;;;19.01;34.75
39177;BME280;24904;52.208;21.192;2023-04-22T11:13:53;100390.80;;;19.06;34.89
39177;BME280;24904;52.208;21.192;2023-04-22T11:18:57;100389.50;;;19.17;34.67
39177;BME280;24904;52.208;21.192;2023-04-22T11:24:00;100384.59;;;19.26;34.15
39177;BME280;24904;52.208;21.192;2023-04-22T11:29:08;100380.27;;;19.37;34.49
39177;BME280;24904;52.208;21.192;2023-04-22T11:34:11;100375.98;;;19.43;34.40
39177;BME280;24904;52.208;21.192;2023-04-22T11:39:14;100374.88;;;19.27;34.44
39177;BME280;24904;52.208;21.192;2023-04-22T11:44:23;100370.52;;;19.13;34.81
39177;BME280;24904;52.208;21.192;2023-04-22T11:49:27;100373.17;;;19.01;35.45
39177;BME280;24904;52.208;21.192;2023-04-22T11:54:34;100374.45;;;18.88;35.57
39177;BME280;24904;52.208;21.192;2023-04-22T11:59:38;100370.99;;;18.71;35.29
39177;BME280;24904;52.208;21.192;2023-04-22T12:04:42;100368.46;;;18.63;35.16
39177;BME280;24904;52.208;21.192;2023-04-22T12:09:45;100367.30;;;18.74;35.16
39177;BME280;24904;52.208;21.192;2023-04-22T12:14:49;100362.23;;;18.79;34.88
39177;BME280;24904;52.208;21.192;2023-04-22T12:19:54;100356.19;;;18.90;35.00
39177;BME280;24904;52.208;21.192;2023-04-22T12:24:58;100354.58;;;19.04;34.67
39177;BME280;24904;52.208;21.192;2023-04-22T12:30:03;100351.94;;;19.18;34.56
39177;BME280;24904;52.208;21.192;2023-04-22T12:35:07;100348.92;;;19.27;34.28
39177;BME280;24904;52.208;21.192;2023-04-22T12:40:10;100346.63;;;19.24;34.29
39177;BME280;24904;52.208;21.192;2023-04-22T12:45:14;100341.63;;;19.17;34.07
39177;BME280;24904;52.208;21.192;2023-04-22T12:50:18;100336.77;;;19.11;34.50
39177;BME280;24904;52.208;21.192;2023-04-22T12:55:21;100330.13;;;19.10;34.01
39177;BME280;24904;52.208;21.192;2023-04-22T13:00:24;100328.51;;;19.11;34.26
39177;BME280;24904;52.208;21.192;2023-04-22T13:05:27;100326.67;;;19.08;34.20
39177;BME280;24904;52.208;21.192;2023-04-22T13:10:30;100321.66;;;19.05;34.11
39177;BME280;24904;52.208;21.192;2023-04-22T13:15:34;100318.16;;;19.02;34.06
39177;BME280;24904;52.208;21.192;2023-04-22T13:20:37;100316.55;;;18.99;33.94
39177;BME280;24904;52.208;21.192;2023-04-22T13:25:41;100317.98;;;18.95;33.87
39177;BME280;24904;52.208;21.192;2023-04-22T13:31:21;100315.57;;;18.96;33.70
39177;BME280;24904;52.208;21.192;2023-04-22T13:36:24;100313.81;;;18.94;33.69
39177;BME280;24904;52.208;21.192;2023-04-22T13:41:27;100310.39;;;18.91;33.78
39177;BME280;24904;52.208;21.192;2023-04-22T13:46:30;100308.05;;;18.88;33.83
39177;BME280;24904;52.208;21.192;2023-04-22T13:51:34;100308.27;;;18.86;34.08
39177;BME280;24904;52.208;21.192;2023-04-22T13:56:38;100304.54;;;18.79;33.94
39177;BME280;24904;52.208;21.192;2023-04-22T14:01:41;100307.05;;;18.75;33.95
39177;BME280;24904;52.208;21.192;2023-04-22T14:06:44;100304.90;;;18.71;34.15
39177;BME280;24904;52.208;21.192;2023-04-22T14:11:47;100303.04;;;18.68;34.27
39177;BME280;24904;52.208;21.192;2023-04-22T14:16:50;100298.27;;;18.65;34.35
39177;BME280;24904;52.208;21.192;2023-04-22T14:21:53;100296.92;;;18.61;34.67
39177;BME280;24904;52.208;21.192;2023-04-22T14:26:58;100299.37;;;18.57;34.40
39177;BME280;24904;52.208;21.192;2023-04-22T14:32:02;100300.52;;;18.55;34.38
39177;BME280;24904;52.208;21.192;2023-04-22T14:37:05;100289.92;;;18.57;34.27
39177;BME280;24904;52.208;21.192;2023-04-22T14:42:09;100289.34;;;18.59;33.88
39177;BME280;24904;52.208;21.192;2023-04-22T14:47:12;100289.74;;;18.62;33.79
39177;BME280;24904;52.208;21.192;2023-04-22T14:52:15;100283.03;;;18.64;33.85
39177;BME280;24904;52.208;21.192;2023-04-22T14:57:18;100283.33;;;18.65;33.45
39177;BME280;24904;52.208;21.192;2023-04-22T15:02:21;100276.48;;;18.66;33.43
39177;BME280;24904;52.208;21.192;2023-04-22T15:07:24;100272.26;;;18.66;33.48
39177;BME280;24904;52.208;21.192;2023-04-22T15:12:28;100270.33;;;18.67;33.30
39177;BME280;24904;52.208;21.192;2023-04-22T15:17:31;100272.98;;;18.69;33.37
39177;BME280;24904;52.208;21.192;2023-04-22T15:22:36;100268.98;;;18.70;33.15
39177;BME280;24904;52.208;21.192;2023-04-22T15:27:41;100271.02;;;18.72;33.19
39177;BME280;24904;52.208;21.192;2023-04-22T15:32:44;100266.92;;;18.74;33.34
39177;BME280;24904;52.208;21.192;2023-04-22T15:37:47;100268.48;;;18.75;32.96
39177;BME280;24904;52.208;21.192;2023-04-22T15:42:50;100266.98;;;18.75;33.19
39177;BME280;24904;52.208;21.192;2023-04-22T15:47:53;100264.05;;;18.78;33.37
39177;BME280;24904;52.208;21.192;2023-04-22T15:52:56;100261.90;;;18.81;33.29
39177;BME280;24904;52.208;21.192;2023-04-22T15:57:59;100259.88;;;18.85;33.00
39177;BME280;24904;52.208;21.192;2023-04-22T16:03:03;100260.42;;;18.86;32.95
39177;BME280;24904;52.208;21.192;2023-04-22T16:08:07;100262.64;;;18.83;32.43
39177;BME280;24904;52.208;21.192;2023-04-22T16:13:10;100259.47;;;18.79;32.66
39177;BME280;24904;52.208;21.192;2023-04-22T16:18:14;100260.73;;;18.77;32.42
39177;BME280;24904;52.208;21.192;2023-04-22T16:23:17;100260.87;;;18.75;32.18
39177;BME280;24904;52.208;21.192;2023-04-22T16:28:20;100257.51;;;18.71;32.32
39177;BME280;24904;52.208;21.192;2023-04-22T16:33:24;100253.32;;;18.70;32.06
39177;BME280;24904;52.208;21.192;2023-04-22T16:38:27;100252.44;;;18.67;32.07
39177;BME280;24904;52.208;21.192;2023-04-22T16:43:30;100251.52;;;18.66;32.52
39177;BME280;24904;52.208;21.192;2023-04-22T16:48:33;100248.42;;;18.63;32.69
39177;BME280;24904;52.208;21.192;2023-04-22T16:53:37;100252.66;;;18.57;32.74
39177;BME280;24904;52.208;21.192;2023-04-22T16:58:40;100246.02;;;18.49;32.54
39177;BME280;24904;52.208;21.192;2023-04-22T17:03:43;100249.41;;;18.44;32.74
39177;BME280;24904;52.208;21.192;2023-04-22T17:08:46;100251.88;;;18.36;33.16
39177;BME280;24904;52.208;21.192;2023-04-22T17:13:49;100252.49;;;18.30;33.27
39177;BME280;24904;52.208;21.192;2023-04-22T17:18:52;100252.84;;;18.22;33.39
39177;BME280;24904;52.208;21.192;2023-04-22T17:23:55;100251.44;;;18.13;33.38
39177;BME280;24904;52.208;21.192;2023-04-22T17:28:59;100249.61;;;18.01;33.68
39177;BME280;24904;52.208;21.192;2023-04-22T17:34:02;100253.23;;;17.89;33.94
39177;BME280;24904;52.208;21.192;2023-04-22T17:39:05;100252.91;;;17.73;34.59
39177;BME280;24904;52.208;21.192;2023-04-22T17:44:09;100261.68;;;17.53;34.96
39177;BME280;24904;52.208;21.192;2023-04-22T17:49:12;100260.84;;;17.34;35.31
39177;BME280;24904;52.208;21.192;2023-04-22T17:54:15;100265.48;;;17.14;35.84
39177;BME280;24904;52.208;21.192;2023-04-22T17:59:18;100270.02;;;16.94;36.11
39177;BME280;24904;52.208;21.192;2023-04-22T18:04:21;100276.30;;;16.72;36.55
39177;BME280;24904;52.208;21.192;2023-04-22T18:17:57;100279.30;;;16.11;38.09
39177;BME280;24904;52.208;21.192;2023-04-22T18:23:00;100281.98;;;15.86;38.44
39177;BME280;24904;52.208;21.192;2023-04-22T18:28:03;100279.98;;;15.59;39.07
39177;BME280;24904;52.208;21.192;2023-04-22T18:33:07;100281.39;;;15.36;39.68
39177;BME280;24904;52.208;21.192;2023-04-22T18:38:10;100290.35;;;15.16;40.09
39177;BME280;24904;52.208;21.192;2023-04-22T18:43:13;100293.26;;;14.99;40.20
39177;BME280;24904;52.208;21.192;2023-04-22T18:48:16;100295.32;;;14.76;40.61
39177;BME280;24904;52.208;21.192;2023-04-22T18:53:21;100299.12;;;14.51;41.27
39177;BME280;24904;52.208;21.192;2023-04-22T18:58:24;100301.08;;;14.37;41.80
39177;BME280;24904;52.208;21.192;2023-04-22T19:03:28;100297.61;;;14.18;42.00
39177;BME280;24904;52.208;21.192;2023-04-22T19:08:31;100297.75;;;14.07;42.43
39177;BME280;24904;52.208;21.192;2023-04-22T19:13:34;100298.19;;;13.95;42.80
39177;BME280;24904;52.208;21.192;2023-04-22T19:18:37;100292.66;;;13.75;43.23
39177;BME280;24904;52.208;21.192;2023-04-22T19:23:40;100291.59;;;13.64;43.53
39177;BME280;24904;52.208;21.192;2023-04-22T19:28:43;100293.44;;;13.48;43.96
39177;BME280;24904;52.208;21.192;2023-04-22T19:33:48;100297.86;;;13.37;44.30
39177;BME280;24904;52.208;21.192;2023-04-22T19:38:52;100295.92;;;13.29;44.70
39177;BME280;24904;52.208;21.192;2023-04-22T19:43:55;100293.23;;;13.17;45.04
39177;BME280;24904;52.208;21.192;2023-04-22T19:49:01;100293.06;;;13.05;45.54
39177;BME280;24904;52.208;21.192;2023-04-22T19:54:05;100292.44;;;12.93;45.78
39177;BME280;24904;52.208;21.192;2023-04-22T19:59:09;100293.70;;;12.82;46.29
39177;BME280;24904;52.208;21.192;2023-04-22T20:04:14;100295.24;;;12.68;46.90
39177;BME280;24904;52.208;21.192;2023-04-22T20:09:18;100289.33;;;12.55;47.35
39177;BME280;24904;52.208;21.192;2023-04-22T20:14:22;100288.29;;;12.42;47.77
39177;BME280;24904;52.208;21.192;2023-04-22T20:19:27;100292.65;;;12.28;48.34
39177;BME280;24904;52.208;21.192;2023-04-22T20:24:35;100293.00;;;12.13;48.79
39177;BME280;24904;52.208;21.192;2023-04-22T20:29:39;100295.23;;;12.00;49.41
39177;BME280;24904;52.208;21.192;2023-04-22T20:34:44;100289.98;;;11.85;49.69
39177;BME280;24904;52.208;21.192;2023-04-22T20:39:47;100291.07;;;11.76;49.97
39177;BME280;24904;52.208;21.192;2023-04-22T20:44:51;100289.92;;;11.65;50.34
39177;BME280;24904;52.208;21.192;2023-04-22T20:49:54;100290.23;;;11.50;50.33
39177;BME280;24904;52.208;21.192;2023-04-22T20:54:57;100289.21;;;11.38;50.74
39177;BME280;24904;52.208;21.192;2023-04-22T21:00:00;100294.41;;;11.28;51.40
39177;BME280;24904;52.208;21.192;2023-04-22T21:05:05;100290.91;;;11.23;52.61
39177;BME280;24904;52.208;21.192;2023-04-22T21:10:10;100295.88;;;11.15;52.93
39177;BME280;24904;52.208;21.192;2023-04-22T21:15:15;100298.66;;;10.99;53.14
39177;BME280;24904;52.208;21.192;2023-04-22T21:20:19;100294.00;;;10.85;53.38
39177;BME280;24904;52.208;21.192;2023-04-22T21:25:25;100297.44;;;10.74;53.52
39177;BME280;24904;52.208;21.192;2023-04-22T21:30:30;100300.85;;;10.63;54.01
39177;BME280;24904;52.208;21.192;2023-04-22T21:35:34;100302.64;;;10.55;53.91
39177;BME280;24904;52.208;21.192;2023-04-22T21:40:37;100307.59;;;10.45;53.88
39177;BME280;24904;52.208;21.192;2023-04-22T21:45:40;100304.73;;;10.36;54.58
39177;BME280;24904;52.208;21.192;2023-04-22T21:50:43;100299.63;;;10.28;55.37
39177;BME280;24904;52.208;21.192;2023-04-22T21:55:46;100298.64;;;10.18;55.30
39177;BME280;24904;52.208;21.192;2023-04-22T22:00:49;100299.08;;;10.04;55.60
39177;BME280;24904;52.208;21.192;2023-04-22T22:05:53;100298.79;;;9.93;55.90
39177;BME280;24904;52.208;21.192;2023-04-22T22:10:56;100298.09;;;9.81;55.96
39177;BME280;24904;52.208;21.192;2023-04-22T22:16:00;100301.88;;;9.71;56.33
39177;BME280;24904;52.208;21.192;2023-04-22T22:21:04;100300.92;;;9.59;56.67
39177;BME280;24904;52.208;21.192;2023-04-22T22:26:07;100301.16;;;9.47;57.05
39177;BME280;24904;52.208;21.192;2023-04-22T22:31:10;100300.44;;;9.41;57.18
39177;BME280;24904;52.208;21.192;2023-04-22T22:36:13;100301.45;;;9.35;57.39
39177;BME280;24904;52.208;21.192;2023-04-22T22:41:17;100303.73;;;9.31;57.33
39177;BME280;24904;52.208;21.192;2023-04-22T22:46:20;100300.70;;;9.27;57.44
39177;BME280;24904;52.208;21.192;2023-04-22T22:51:23;100300.40;;;9.22;57.49
39177;BME280;24904;52.208;21.192;2023-04-22T22:56:26;100296.55;;;9.12;57.64
39177;BME280;24904;52.208;21.192;2023-04-22T23:01:29;100298.48;;;9.10;57.84
39177;BME280;24904;52.208;21.192;2023-04-22T23:06:32;100301.61;;;9.10;57.80
39177;BME280;24904;52.208;21.192;2023-04-22T23:11:35;100305.42;;;9.08;58.03
39177;BME280;24904;52.208;21.192;2023-04-22T23:16:38;100304.27;;;9.04;58.50
39177;BME280;24904;52.208;21.192;2023-04-22T23:21:42;100301.63;;;8.97;58.87
39177;BME280;24904;52.208;21.192;2023-04-22T23:26:46;100299.66;;;8.90;58.81
39177;BME280;24904;52.208;21.192;2023-04-22T23:31:50;100297.02;;;8.87;59.01
39177;BME280;24904;52.208;21.192;2023-04-22T23:36:54;100293.36;;;8.84;59.03
39177;BME280;24904;52.208;21.192;2023-04-22T23:41:59;100292.18;;;8.84;58.97
39177;BME280;24904;52.208;21.192;2023-04-22T23:47:02;100288.91;;;8.89;59.17
39177;BME280;24904;52.208;21.192;2023-04-22T23:52:05;100290.35;;;8.90;59.00
39177;BME280;24904;52.208;21.192;2023-04-22T23:57:10;100288.80;;;8.91;58.91
